Time;durP1;ratioP1;P1;durP2;ratioP2;P2;SDS_P1;SDS_P2;PMS_P1;PMS_P2;Temp;Humidity;BMP_temperature;BMP_pressure;BME280_temperature;BME280_humidity;BME280_pressure;Samples;Min_cycle;Max_cycle;Signal;HPM_P1;HPM_P2
2023/02/21 02:14:21;;;;;;;85.73;41.57;;;9.10;99.90;;;;;;5035586;28;20044;-77
2023/02/21 02:17:21;;;;;;;91.60;41.50;;;9.00;99.90;;;;;;5034028;28;20387;-76
2023/02/21 02:20:23;;;;;;;89.47;41.10;;;9.10;99.90;;;;;;5033465;28;20048;-77
2023/02/21 02:23:04;;;;;;;89.07;40.20;;;9.10;99.90;;;;;;5034134;28;20018;-77
2023/02/21 02:26:04;;;;;;;87.30;40.90;;;9.10;99.90;;;;;;5033944;28;20029;-77
2023/02/21 02:28:48;;;;;;;88.73;40.30;;;9.10;99.90;;;;;;5035349;28;20025;-77
2023/02/21 02:31:42;;;;;;;85.97;41.50;;;9.10;99.90;;;;;;5033937;28;20029;-77
2023/02/21 02:34:07;;;;;;;94.20;43.10;;;9.10;99.90;;;;;;5035229;28;20029;-77
2023/02/21 02:36:43;;;;;;;92.13;41.67;;;9.10;99.90;;;;;;5033799;28;20022;-77
2023/02/21 02:39:17;;;;;;;90.40;41.40;;;9.10;99.90;;;;;;5033509;28;20033;-77
2023/02/21 02:42:34;;;;;;;88.00;40.20;;;9.10;99.90;;;;;;5035028;28;20026;-77
2023/02/21 02:45:23;;;;;;;85.27;40.00;;;9.10;99.90;;;;;;5044728;28;20041;-77
2023/02/21 02:47:54;;;;;;;88.00;38.83;;;9.10;99.90;;;;;;5033239;28;20092;-76
2023/02/21 02:50:21;;;;;;;91.00;43.20;;;9.10;99.90;;;;;;5033312;28;20064;-76
2023/02/21 02:52:55;;;;;;;96.63;42.27;;;9.10;99.90;;;;;;5033684;28;20029;-82
2023/02/21 02:55:42;;;;;;;96.00;42.63;;;9.10;99.90;;;;;;5033638;28;20036;-82
2023/02/21 02:58:10;;;;;;;98.30;44.53;;;9.10;99.90;;;;;;5034731;28;20026;-82
2023/02/21 03:00:40;;;;;;;97.07;43.50;;;9.10;99.90;;;;;;5029560;28;20022;-82
2023/02/21 03:03:41;;;;;;;93.63;41.47;;;9.10;99.90;;;;;;5020450;28;20133;-82
2023/02/21 03:06:49;;;;;;;90.27;39.93;;;9.10;99.90;;;;;;5025060;28;20021;-82
2023/02/21 03:09:28;;;;;;;78.17;37.90;;;9.10;99.90;;;;;;5034350;28;20033;-82
2023/02/21 03:11:59;;;;;;;81.37;35.47;;;9.00;99.90;;;;;;5033589;28;20063;-82
2023/02/21 03:14:34;;;;;;;75.70;35.60;;;9.00;99.90;;;;;;5032076;28;20481;-82
2023/02/21 03:17:06;;;;;;;75.00;35.20;;;9.10;99.90;;;;;;5032808;28;20045;-84
2023/02/21 03:19:38;;;;;;;74.67;33.93;;;9.10;99.90;;;;;;5034282;28;20492;-83
2023/02/21 03:22:12;;;;;;;59.20;32.13;;;9.00;99.90;;;;;;5032920;28;20021;-82
2023/02/21 03:24:41;;;;;;;69.88;32.83;;;9.00;99.90;;;;;;5032953;28;20029;-82
2023/02/21 03:27:08;;;;;;;69.87;31.73;;;9.00;99.90;;;;;;5032935;28;20076;-82
2023/02/21 03:29:36;;;;;;;72.23;32.13;;;9.00;99.90;;;;;;5032692;28;20032;-82
2023/02/21 03:34:57;;;;;;;64.47;30.80;;;9.00;99.90;;;;;;5034018;28;20026;-82
2023/02/21 03:37:40;;;;;;;67.87;31.13;;;9.10;99.90;;;;;;5016389;28;20513;-82
2023/02/21 03:40:11;;;;;;;71.30;33.27;;;9.10;99.90;;;;;;5032695;28;20029;-82
2023/02/21 03:42:37;;;;;;;75.17;35.33;;;9.10;99.90;;;;;;5032452;28;20080;-83
2023/02/21 03:45:04;;;;;;;66.40;34.27;;;9.10;99.90;;;;;;5032678;28;20029;-83
2023/02/21 03:47:30;;;;;;;65.87;31.93;;;9.00;99.90;;;;;;5016313;28;20030;-83
2023/02/21 03:49:55;;;;;;;75.73;35.23;;;9.10;99.90;;;;;;5032306;28;20129;-82
2023/02/21 03:52:21;;;;;;;73.43;33.93;;;9.10;99.90;;;;;;5015928;28;20048;-82
2023/02/21 03:54:46;;;;;;;71.37;34.37;;;9.00;99.90;;;;;;5015990;28;20033;-82
2023/02/21 03:57:12;;;;;;;72.53;33.67;;;9.00;99.90;;;;;;5033787;28;20025;-82
2023/02/21 03:59:38;;;;;;;72.17;33.47;;;9.00;99.90;;;;;;5032246;28;20032;-82
2023/02/21 04:02:04;;;;;;;77.03;35.73;;;9.10;99.90;;;;;;5015132;28;20032;-82
2023/02/21 04:04:30;;;;;;;79.80;35.90;;;9.10;99.90;;;;;;5015887;28;20034;-82
2023/02/21 04:06:55;;;;;;;78.80;39.00;;;8.90;99.90;;;;;;5032209;28;20029;-82
2023/02/21 04:09:22;;;;;;;84.67;39.97;;;9.10;99.90;;;;;;5032234;28;20021;-82
2023/02/21 04:11:48;;;;;;;97.30;40.00;;;9.10;99.90;;;;;;5032260;28;20045;-82
2023/02/21 04:14:14;;;;;;;93.43;40.50;;;9.00;99.90;;;;;;5015770;28;20030;-82
2023/02/21 04:16:41;;;;;;;85.77;38.63;;;9.00;99.90;;;;;;5032313;28;20510;-82
2023/02/21 04:19:06;;;;;;;92.80;42.17;;;9.10;99.90;;;;;;5032455;28;20465;-82
2023/02/21 04:21:32;;;;;;;88.90;42.20;;;9.10;99.90;;;;;;5015857;28;20124;-82
2023/02/21 04:23:57;;;;;;;84.60;38.43;;;9.00;99.90;;;;;;5032173;28;20033;-83
2023/02/21 04:26:23;;;;;;;84.13;38.67;;;9.10;99.90;;;;;;5015484;28;20061;-82
2023/02/21 04:28:50;;;;;;;82.10;38.70;;;9.00;99.90;;;;;;5033391;28;20041;-81
2023/02/21 04:31:16;;;;;;;79.13;36.67;;;9.00;99.90;;;;;;5015607;28;20083;-83
2023/02/21 04:33:42;;;;;;;76.63;35.90;;;9.00;99.90;;;;;;5031918;28;20056;-81
2023/02/21 04:36:09;;;;;;;89.23;37.70;;;9.00;99.90;;;;;;5031911;28;20025;-83
2023/02/21 04:38:36;;;;;;;83.10;39.73;;;9.00;99.90;;;;;;5031653;28;20473;-82
2023/02/21 04:41:03;;;;;;;80.83;37.23;;;9.00;99.90;;;;;;5031857;28;20080;-82
2023/02/21 04:43:28;;;;;;;78.57;35.57;;;9.00;99.90;;;;;;5031821;28;20033;-82
2023/02/21 04:45:54;;;;;;;77.97;37.33;;;9.00;99.90;;;;;;5031788;28;20492;-82
2023/02/21 04:48:20;;;;;;;84.13;39.03;;;9.00;99.90;;;;;;5031814;28;20037;-81
2023/02/21 04:50:45;;;;;;;75.43;36.80;;;9.00;99.90;;;;;;5031763;28;20032;-83
2023/02/21 04:53:11;;;;;;;72.80;36.83;;;9.10;99.90;;;;;;5015169;28;20026;-82
2023/02/21 04:55:37;;;;;;;75.67;35.87;;;9.10;99.90;;;;;;5032939;28;20017;-81
2023/02/21 04:58:03;;;;;;;77.80;35.33;;;9.00;99.90;;;;;;5031673;28;20367;-83
2023/02/21 05:00:29;;;;;;;72.27;34.17;;;9.00;99.90;;;;;;5033020;28;20041;-82
2023/02/21 05:02:54;;;;;;;79.23;36.93;;;9.00;99.90;;;;;;5015208;28;20076;-81
2023/02/21 05:05:20;;;;;;;83.87;37.63;;;9.00;99.90;;;;;;5015193;28;20521;-82
2023/02/21 05:07:46;;;;;;;82.17;38.97;;;9.00;99.90;;;;;;5015171;28;20368;-82
2023/02/21 05:10:13;;;;;;;78.00;37.53;;;9.00;99.90;;;;;;5014948;28;20056;-82
2023/02/21 05:12:39;;;;;;;81.77;37.63;;;9.00;99.90;;;;;;5033927;28;20029;-83
2023/02/21 05:15:06;;;;;;;81.43;38.23;;;9.00;99.90;;;;;;5035085;28;20520;-82
2023/02/21 05:17:32;;;;;;;89.53;40.73;;;9.00;99.90;;;;;;5035295;28;20029;-76
2023/02/21 05:19:57;;;;;;;82.43;39.40;;;9.00;99.90;;;;;;5019018;28;20088;-77
2023/02/21 05:22:23;;;;;;;103.47;43.90;;;9.00;99.90;;;;;;5018850;28;20056;-77
2023/02/21 05:24:49;;;;;;;88.97;40.40;;;9.00;99.90;;;;;;5018667;28;20485;-76
2023/02/21 05:27:17;;;;;;;89.03;39.87;;;9.00;99.90;;;;;;5035140;28;20026;-76
2023/02/21 05:29:51;;;;;;;91.37;41.20;;;9.00;99.90;;;;;;5035182;28;20381;-76
2023/02/21 05:32:19;;;;;;;88.70;39.57;;;9.00;99.90;;;;;;5035181;28;20038;-76
2023/02/21 05:34:46;;;;;;;87.60;39.83;;;9.00;99.90;;;;;;5019199;28;20123;-77
2023/02/21 05:37:16;;;;;;;82.20;38.97;;;9.00;99.90;;;;;;5018701;28;20362;-76
2023/02/21 05:39:42;;;;;;;89.83;39.27;;;9.00;99.90;;;;;;5034718;28;20040;-77
2023/02/21 05:42:08;;;;;;;88.67;39.40;;;9.00;99.90;;;;;;5035023;28;20033;-76
2023/02/21 05:44:34;;;;;;;84.20;38.87;;;9.00;99.90;;;;;;5035370;28;20041;-77
2023/02/21 05:47:01;;;;;;;89.73;40.00;;;9.00;99.90;;;;;;5018667;28;20029;-76
2023/02/21 05:49:27;;;;;;;89.07;38.37;;;9.00;99.90;;;;;;5034210;28;20029;-77
2023/02/21 05:51:53;;;;;;;94.60;38.23;;;9.00;99.90;;;;;;5034373;28;20021;-78
2023/02/21 05:54:20;;;;;;;89.03;37.40;;;9.00;99.90;;;;;;5024641;28;20109;-78
2023/02/21 05:56:48;;;;;;;82.63;37.60;;;9.00;99.90;;;;;;5030765;28;20368;-77
2023/02/21 05:59:15;;;;;;;89.17;37.97;;;9.00;99.90;;;;;;5011092;28;20049;-78
2023/02/21 06:01:42;;;;;;;89.37;38.40;;;9.00;99.90;;;;;;5033602;28;20033;-78
2023/02/21 06:04:07;;;;;;;85.37;38.17;;;9.00;99.90;;;;;;5017335;28;20038;-85
2023/02/21 06:06:34;;;;;;;82.00;37.07;;;9.00;99.90;;;;;;5018482;28;20086;-85
2023/02/21 06:09:00;;;;;;;98.00;40.67;;;9.00;99.90;;;;;;5018920;28;20075;-85
2023/02/21 06:11:28;;;;;;;89.57;38.93;;;9.10;99.90;;;;;;5035060;28;20025;-84
2023/02/21 06:13:56;;;;;;;94.27;39.73;;;9.00;99.90;;;;;;5034681;28;20032;-84
2023/02/21 06:16:22;;;;;;;96.20;40.67;;;9.00;99.90;;;;;;5035214;28;20045;-84
2023/02/21 06:18:53;;;;;;;94.07;38.83;;;9.00;99.90;;;;;;5035888;28;20026;-85
2023/02/21 06:21:19;;;;;;;95.60;40.43;;;9.00;99.90;;;;;;5026808;28;20034;-84
2023/02/21 06:23:45;;;;;;;101.63;41.37;;;9.00;99.90;;;;;;4997317;28;20143;-85
2023/02/21 06:26:11;;;;;;;89.50;38.57;;;9.00;99.90;;;;;;5018136;28;20036;-85
2023/02/21 06:28:37;;;;;;;99.03;40.33;;;9.10;99.90;;;;;;5034083;28;20493;-84
2023/02/21 06:31:03;;;;;;;97.20;41.23;;;9.00;99.90;;;;;;5033428;28;20102;-84
2023/02/21 06:33:29;;;;;;;92.57;41.07;;;9.00;99.90;;;;;;5033888;28;20026;-84
2023/02/21 06:35:54;;;;;;;82.47;36.70;;;9.10;99.90;;;;;;5013850;28;20021;-84
2023/02/21 06:38:20;;;;;;;101.17;41.37;;;9.00;99.90;;;;;;5024748;28;20109;-85
2023/02/21 06:40:46;;;;;;;92.40;38.50;;;9.00;99.90;;;;;;5021717;28;20028;-85
2023/02/21 06:43:12;;;;;;;92.33;37.07;;;9.10;99.90;;;;;;5015040;28;20121;-85
2023/02/21 06:45:37;;;;;;;93.73;40.93;;;9.10;99.90;;;;;;4998331;28;20065;-85
2023/02/21 06:48:03;;;;;;;92.37;38.67;;;9.10;99.90;;;;;;4998396;28;20381;-85
2023/02/21 06:50:29;;;;;;;95.67;38.33;;;9.10;99.90;;;;;;5017982;28;20541;-85
2023/02/21 06:52:54;;;;;;;91.73;36.97;;;9.10;99.90;;;;;;5017990;28;20030;-85
2023/02/21 06:55:21;;;;;;;91.77;37.67;;;9.10;99.90;;;;;;5017715;28;20049;-86
2023/02/21 06:57:47;;;;;;;89.07;38.30;;;9.10;99.90;;;;;;5035546;28;20022;-86
2023/02/21 07:00:14;;;;;;;94.17;38.33;;;9.00;99.90;;;;;;5017872;28;20021;-85
2023/02/21 07:02:40;;;;;;;105.10;40.67;;;9.00;99.90;;;;;;5017758;28;20060;-84
2023/02/21 07:05:07;;;;;;;91.57;39.37;;;9.00;99.90;;;;;;5008043;28;20049;-85
2023/02/21 07:07:32;;;;;;;89.47;38.70;;;9.00;99.90;;;;;;4999967;28;20034;-80
2023/02/21 07:09:58;;;;;;;94.27;37.17;;;9.00;99.90;;;;;;4997720;28;20113;-84
2023/02/21 07:12:24;;;;;;;92.30;38.87;;;9.00;99.90;;;;;;5014013;28;20386;-85
2023/02/21 07:14:50;;;;;;;89.03;36.87;;;9.00;99.90;;;;;;5012629;28;20088;-83
2023/02/21 07:17:15;;;;;;;104.90;40.10;;;9.00;99.90;;;;;;5011286;28;20554;-84
2023/02/21 07:19:42;;;;;;;86.33;35.37;;;9.00;99.90;;;;;;5011612;28;20057;-84
2023/02/21 07:22:08;;;;;;;86.70;36.30;;;9.00;99.90;;;;;;4995304;28;20061;-84
2023/02/21 07:24:34;;;;;;;102.97;39.03;;;9.00;99.90;;;;;;5011912;28;20030;-83
2023/02/21 07:26:59;;;;;;;109.60;39.43;;;9.00;99.90;;;;;;4995392;28;20528;-84
2023/02/21 07:29:25;;;;;;;103.70;40.77;;;9.00;99.90;;;;;;5013523;28;20168;-84
2023/02/21 07:31:51;;;;;;;108.43;38.47;;;9.00;99.90;;;;;;4996845;28;20057;-84
2023/02/21 07:34:18;;;;;;;103.73;39.57;;;9.00;99.90;;;;;;4997359;28;20491;-84
2023/02/21 07:36:44;;;;;;;111.13;41.23;;;9.00;99.90;;;;;;4996508;28;20026;-83
2023/02/21 07:39:10;;;;;;;110.83;42.40;;;9.00;99.90;;;;;;5013047;28;20014;-84
2023/02/21 07:41:36;;;;;;;108.40;39.67;;;9.00;99.90;;;;;;5013070;28;20405;-84
2023/02/21 07:44:02;;;;;;;109.67;40.80;;;9.00;99.90;;;;;;4996962;28;20026;-84
2023/02/21 07:46:28;;;;;;;106.90;39.57;;;9.00;99.90;;;;;;4996543;28;20096;-83
2023/02/21 07:48:54;;;;;;;104.13;41.40;;;9.00;99.90;;;;;;4996659;28;20033;-84
2023/02/21 07:51:19;;;;;;;108.83;39.93;;;9.00;99.90;;;;;;4997477;28;20034;-83
2023/02/21 07:53:45;;;;;;;114.80;42.50;;;9.00;99.90;;;;;;5016647;28;20089;-83
2023/02/21 07:56:11;;;;;;;110.20;41.23;;;9.00;99.90;;;;;;5001430;28;20120;-84
2023/02/21 07:58:37;;;;;;;106.17;39.63;;;9.00;99.90;;;;;;4999383;28;20033;-83
2023/02/21 08:01:06;;;;;;;104.93;40.40;;;8.90;99.90;;;;;;5014641;28;20022;-84
2023/02/21 08:03:32;;;;;;;101.53;38.27;;;8.90;99.90;;;;;;4997598;28;20026;-83
2023/02/21 08:05:58;;;;;;;96.93;41.50;;;8.90;99.90;;;;;;4996487;28;20030;-82
2023/02/21 08:08:25;;;;;;;114.10;43.37;;;8.90;99.90;;;;;;4996235;28;20370;-84
2023/02/21 08:10:50;;;;;;;116.30;41.83;;;9.00;99.90;;;;;;5014022;28;20037;-83
2023/02/21 08:13:16;;;;;;;101.57;38.90;;;8.90;99.90;;;;;;5012546;28;20022;-84
2023/02/21 08:15:42;;;;;;;102.83;39.17;;;8.90;99.90;;;;;;4995775;28;20073;-84
2023/02/21 08:18:22;;;;;;;110.40;42.20;;;8.90;99.90;;;;;;4996311;28;20026;-83
2023/02/21 08:20:50;;;;;;;115.23;40.70;;;8.90;99.90;;;;;;5012435;28;20024;-83
2023/02/21 08:23:17;;;;;;;100.47;40.17;;;9.00;99.90;;;;;;5012294;28;20018;-82
2023/02/21 08:25:43;;;;;;;91.80;36.60;;;8.90;99.90;;;;;;5012525;28;20040;-84
2023/02/21 08:28:08;;;;;;;94.27;34.80;;;9.00;99.90;;;;;;5012169;28;20036;-84
2023/02/21 08:30:34;;;;;;;116.63;41.30;;;9.00;99.90;;;;;;4996451;28;20112;-84
2023/02/21 08:33:00;;;;;;;102.53;39.00;;;9.00;99.90;;;;;;5012355;28;20429;-83
2023/02/21 08:35:25;;;;;;;104.87;37.73;;;9.00;99.90;;;;;;4995977;28;20022;-84
2023/02/21 08:37:55;;;;;;;99.53;37.63;;;9.00;99.90;;;;;;4995876;28;20065;-84
2023/02/21 08:40:22;;;;;;;99.70;37.60;;;9.00;99.90;;;;;;5012101;28;20522;-83
2023/02/21 08:42:50;;;;;;;89.53;36.27;;;9.00;99.90;;;;;;4995641;28;20050;-77
2023/02/21 08:45:17;;;;;;;86.70;36.27;;;9.00;99.90;;;;;;5012016;28;20029;-77
2023/02/21 08:47:43;;;;;;;87.63;33.27;;;9.00;99.90;;;;;;4997010;28;20034;-77
2023/02/21 08:50:09;;;;;;;84.57;34.33;;;9.10;99.90;;;;;;4999637;28;20026;-77
2023/02/21 08:52:35;;;;;;;93.90;34.73;;;9.10;99.90;;;;;;4999454;28;20029;-77
2023/02/21 08:55:01;;;;;;;72.00;30.33;;;9.10;99.90;;;;;;4999482;28;20025;-77
2023/02/21 08:57:26;;;;;;;77.33;32.43;;;9.10;99.90;;;;;;4999524;28;20394;-77
2023/02/21 08:59:52;;;;;;;72.13;32.43;;;9.10;99.90;;;;;;4999754;28;20394;-76
2023/02/21 09:02:21;;;;;;;66.40;29.70;;;9.20;99.90;;;;;;4999583;28;20032;-77
2023/02/21 09:04:46;;;;;;;70.23;31.20;;;9.20;99.90;;;;;;5016077;28;20479;-83
2023/02/21 09:07:14;;;;;;;71.07;31.03;;;9.20;99.90;;;;;;5000027;28;20029;-83
2023/02/21 09:09:39;;;;;;;65.10;26.30;;;9.10;99.90;;;;;;5016245;28;20022;-83
2023/02/21 09:12:08;;;;;;;60.63;27.47;;;9.20;99.90;;;;;;4999543;28;20029;-83
2023/02/21 09:14:40;;;;;;;62.13;26.93;;;9.20;99.90;;;;;;5015912;28;20022;-83
2023/02/21 09:17:09;;;;;;;61.17;25.30;;;9.20;99.90;;;;;;5015585;28;20052;-84
2023/02/21 09:19:35;;;;;;;56.83;26.47;;;9.20;99.90;;;;;;5015976;28;20022;-85
2023/02/21 09:22:03;;;;;;;57.13;26.93;;;9.20;99.90;;;;;;4999668;28;20040;-84
2023/02/21 09:24:29;;;;;;;54.00;24.07;;;9.20;99.90;;;;;;5015570;28;20033;-77
2023/02/21 09:27:01;;;;;;;53.03;24.80;;;9.20;99.90;;;;;;5015600;28;20124;-77
2023/02/21 09:29:28;;;;;;;59.57;25.53;;;9.20;99.90;;;;;;5016703;28;20021;-77
2023/02/21 09:31:54;;;;;;;55.23;24.33;;;9.20;99.90;;;;;;4998925;28;20061;-77
2023/02/21 09:34:21;;;;;;;50.80;23.00;;;9.30;99.90;;;;;;4998292;28;20504;-77
2023/02/21 09:36:47;;;;;;;50.50;21.97;;;9.30;99.90;;;;;;4998910;28;20018;-77
2023/02/21 09:39:13;;;;;;;53.17;23.67;;;9.30;99.90;;;;;;5015060;28;20018;-77
2023/02/21 09:41:42;;;;;;;53.97;24.50;;;9.30;99.90;;;;;;5015344;28;20022;-77
2023/02/21 09:44:15;;;;;;;50.50;24.53;;;9.30;99.90;;;;;;5015263;28;20018;-77
2023/02/21 09:46:51;;;;;;;53.90;22.80;;;9.30;99.90;;;;;;5014995;28;20104;-77
2023/02/21 09:49:30;;;;;;;48.80;23.10;;;9.30;99.90;;;;;;5015007;28;20079;-77
2023/02/21 09:51:56;;;;;;;52.37;22.53;;;9.40;99.90;;;;;;5014943;28;20022;-77
2023/02/21 09:54:31;;;;;;;50.07;22.97;;;9.40;99.90;;;;;;5014894;28;20018;-78
2023/02/21 09:57:00;;;;;;;47.67;22.27;;;9.40;99.90;;;;;;5014939;28;20034;-77
2023/02/21 09:59:26;;;;;;;51.67;23.37;;;9.30;99.90;;;;;;5014923;28;20033;-77
2023/02/21 10:02:12;;;;;;;50.03;22.30;;;9.40;99.90;;;;;;4998594;28;20030;-78
2023/02/21 10:05:02;;;;;;;52.77;23.23;;;9.40;99.90;;;;;;5014683;28;20112;-78
2023/02/21 10:07:53;;;;;;;56.23;23.73;;;9.50;99.90;;;;;;5014463;28;20180;-78
2023/02/21 10:10:26;;;;;;;47.07;22.00;;;9.50;99.90;;;;;;5015879;28;20022;-78
2023/02/21 10:12:57;;;;;;;54.67;23.97;;;9.50;99.90;;;;;;5014531;28;20478;-77
2023/02/21 10:15:40;;;;;;;50.77;22.63;;;9.50;99.90;;;;;;5015441;28;20470;-78
2023/02/21 10:18:23;;;;;;;49.70;22.20;;;9.50;99.90;;;;;;5014594;28;20398;-78
2023/02/21 10:20:56;;;;;;;53.60;22.83;;;9.50;99.90;;;;;;5014649;28;20030;-78
2023/02/21 10:23:46;;;;;;;52.40;24.25;;;9.60;99.90;;;;;;5014263;28;20493;-79
2023/02/21 10:26:19;;;;;;;54.40;23.63;;;9.60;99.90;;;;;;5014500;28;20064;-78
2023/02/21 10:28:44;;;;;;;48.57;21.93;;;9.50;99.90;;;;;;5014115;28;20026;-79
2023/02/21 10:31:18;;;;;;;54.50;23.43;;;9.60;99.90;;;;;;5014409;28;20474;-78
2023/02/21 10:33:44;;;;;;;53.03;23.65;;;9.50;99.90;;;;;;5014269;28;20014;-77
2023/02/21 10:36:17;;;;;;;56.87;24.07;;;9.60;99.90;;;;;;4997910;28;20390;-78
2023/02/21 10:38:53;;;;;;;55.20;24.03;;;9.60;99.90;;;;;;5013914;28;20029;-77
2023/02/21 10:41:21;;;;;;;52.07;23.33;;;9.60;99.90;;;;;;5014151;28;20768;-79
2023/02/21 10:43:55;;;;;;;47.17;22.97;;;9.60;99.90;;;;;;5015307;28;20488;-78
2023/02/21 10:46:23;;;;;;;;;;;9.60;99.90;;;;;;5014368;28;20573;-78
2023/02/21 10:48:52;;;;;;;49.53;23.70;;;9.60;99.90;;;;;;5013829;28;19956;-78
2023/02/21 10:51:38;;;;;;;54.07;25.17;;;9.60;99.90;;;;;;5013825;28;20490;-77
2023/02/21 10:54:24;;;;;;;53.23;23.43;;;9.60;99.90;;;;;;5013587;28;20034;-78
2023/02/21 10:56:52;;;;;;;50.67;22.50;;;9.70;99.90;;;;;;5014656;28;20048;-78
2023/02/21 10:59:20;;;;;;;51.40;23.40;;;9.70;99.90;;;;;;5013800;28;20056;-78
2023/02/21 11:01:47;;;;;;;49.67;22.83;;;9.70;99.90;;;;;;5013736;28;20021;-77
2023/02/21 11:04:19;;;;;;;58.93;24.87;;;9.70;99.90;;;;;;5013626;28;20053;-78
2023/02/21 11:06:55;;;;;;;50.07;24.20;;;9.70;99.90;;;;;;5013529;28;20113;-78
2023/02/21 11:09:33;;;;;;;53.77;25.30;;;9.80;99.90;;;;;;5013584;28;20049;-78
2023/02/21 11:12:19;;;;;;;49.20;23.13;;;9.80;99.90;;;;;;5013240;28;20112;-77
2023/02/21 11:15:05;;;;;;;48.27;22.77;;;9.80;99.90;;;;;;5017311;28;20045;-78
2023/02/21 11:17:31;;;;;;;45.33;20.83;;;9.80;99.90;;;;;;5012927;28;20081;-78
2023/02/21 11:36:48;;;;;;;35.37;16.63;;;9.80;99.90;;;;;;5074199;28;20627;-87
2023/02/21 11:39:30;;;;;;;34.53;16.13;;;9.90;99.90;;;;;;5044903;28;20041;-88
2023/02/21 11:42:01;;;;;;;39.47;17.50;;;9.90;99.90;;;;;;5095262;28;20027;-88
2023/02/21 11:44:33;;;;;;;37.43;16.20;;;9.90;99.90;;;;;;5079834;28;20044;-88
2023/02/21 11:47:21;;;;;;;33.30;15.33;;;9.90;99.90;;;;;;5078335;28;20047;-89
2023/02/21 11:50:11;;;;;;;33.60;15.40;;;9.90;99.90;;;;;;5093298;28;20075;-87
2023/02/21 11:52:43;;;;;;;33.83;15.93;;;9.90;99.90;;;;;;5095474;28;20072;-89
2023/02/21 11:55:22;;;;;;;30.13;15.07;;;9.90;99.90;;;;;;5082259;28;20021;-89
2023/02/21 11:58:17;;;;;;;31.10;12.93;;;9.90;99.90;;;;;;5089330;28;20051;-89
2023/02/21 12:01:00;;;;;;;35.37;14.03;;;10.00;99.90;;;;;;5055673;28;20013;-88
2023/02/21 12:04:08;;;;;;;25.83;11.93;;;9.90;99.90;;;;;;5054811;28;20021;-89
2023/02/21 12:06:52;;;;;;;24.80;10.67;;;9.90;99.90;;;;;;5054202;28;20422;-89
2023/02/21 12:09:45;;;;;;;26.85;12.40;;;9.90;99.90;;;;;;5054597;28;20029;-89
2023/02/21 12:13:04;;;;;;;26.40;11.90;;;9.90;99.90;;;;;;5053536;28;20032;-89
2023/02/21 12:15:48;;;;;;;28.37;13.03;;;9.90;99.90;;;;;;5033350;28;20025;-89
2023/02/21 12:18:51;;;;;;;18.08;8.32;;;9.90;99.90;;;;;;5049645;28;20094;-89
2023/02/21 12:21:55;;;;;;;22.90;11.37;;;9.90;99.90;;;;;;5050676;28;20028;-89
2023/02/21 12:24:42;;;;;;;25.27;11.63;;;9.90;99.90;;;;;;5073594;28;20039;-89
2023/02/21 12:27:29;;;;;;;20.43;10.30;;;9.90;99.90;;;;;;5095208;28;20040;-89
2023/02/21 12:30:16;;;;;;;22.70;10.73;;;9.80;99.90;;;;;;5094671;28;20115;-90
2023/02/21 12:32:57;;;;;;;20.83;9.73;;;9.80;99.90;;;;;;5094724;28;20095;-88
2023/02/21 12:35:51;;;;;;;21.67;10.57;;;9.80;99.90;;;;;;5075765;28;20052;-90
2023/02/21 12:38:40;;;;;;;22.97;9.77;;;9.80;99.90;;;;;;5074859;28;20059;-88
2023/02/21 12:41:47;;;;;;;21.33;10.07;;;9.80;99.90;;;;;;5073074;28;20136;-88
2023/02/21 12:44:41;;;;;;;24.97;10.37;;;9.80;99.90;;;;;;5074133;28;20090;-89
2023/02/21 12:47:16;;;;;;;22.67;10.32;;;9.80;99.90;;;;;;5074047;28;20036;-90
2023/02/21 12:50:00;;;;;;;21.40;10.30;;;9.80;99.90;;;;;;5074987;28;20052;-89
2023/02/21 12:52:39;;;;;;;22.25;9.45;;;9.80;99.90;;;;;;5074861;28;20060;-90
2023/02/21 12:55:20;;;;;;;21.97;10.37;;;9.80;99.90;;;;;;5073631;28;20054;-89
2023/02/21 12:57:59;;;;;;;19.90;10.53;;;9.80;99.90;;;;;;5075231;28;20028;-89
2023/02/21 13:00:48;;;;;;;23.57;10.03;;;9.80;99.90;;;;;;5073746;28;20032;-90
2023/02/21 13:03:48;;;;;;;19.70;9.30;;;9.90;99.90;;;;;;5073720;28;20025;-89
2023/02/21 13:06:18;;;;;;;20.60;9.50;;;9.90;99.90;;;;;;5073562;28;20056;-89
2023/02/21 13:09:12;;;;;;;23.07;10.37;;;9.90;99.90;;;;;;5074834;28;20029;-88
2023/02/21 13:12:16;;;;;;;22.98;11.18;;;9.90;99.90;;;;;;5078445;28;20028;-89
2023/02/21 13:14:54;;;;;;;26.40;11.27;;;9.90;99.90;;;;;;5080442;28;20123;-87
2023/02/21 13:17:20;;;;;;;22.97;10.57;;;9.90;99.90;;;;;;5073262;28;20032;-86
2023/02/21 13:19:48;;;;;;;25.40;11.43;;;10.00;99.90;;;;;;5083681;28;20499;-87
2023/02/21 13:26:00;;;;;;;24.40;11.50;;;10.00;99.90;;;;;;5071976;28;20039;-82
2023/02/21 13:28:30;;;;;;;26.13;11.60;;;10.00;99.90;;;;;;5057874;28;20484;-82
2023/02/21 13:31:02;;;;;;;26.27;12.10;;;10.00;99.90;;;;;;5062897;28;20109;-82
2023/02/21 13:33:34;;;;;;;25.20;12.10;;;10.00;99.90;;;;;;5092134;28;20070;-82
2023/02/21 13:36:00;;;;;;;29.00;13.17;;;10.10;99.90;;;;;;5094623;28;20408;-82
2023/02/21 13:38:29;;;;;;;26.37;12.77;;;10.10;99.90;;;;;;5095053;28;20040;-82
2023/02/21 13:41:05;;;;;;;25.60;11.23;;;10.00;99.90;;;;;;5095045;28;20016;-83
2023/02/21 13:43:35;;;;;;;25.73;11.57;;;10.10;99.90;;;;;;5096233;28;20565;-82
2023/02/21 13:46:28;;;;;;;27.73;12.80;;;10.10;99.90;;;;;;5095018;28;20110;-82
2023/02/21 13:49:32;;;;;;;23.10;11.10;;;10.10;99.90;;;;;;5084269;28;20029;-82
2023/02/21 13:52:13;;;;;;;25.93;11.57;;;10.10;99.90;;;;;;5089947;28;20024;-82
2023/02/21 13:55:07;;;;;;;25.27;12.47;;;10.10;99.90;;;;;;5079234;28;20084;-81
2023/02/21 13:57:34;;;;;;;;;;;10.10;99.90;;;;;;5083617;28;20055;-81
2023/02/21 14:00:19;;;;;;;24.80;10.70;;;10.00;99.90;;;;;;5080200;28;20237;-82
2023/02/21 14:03:01;;;;;;;24.23;11.30;;;10.00;99.90;;;;;;5073448;28;20074;-81
2023/02/21 14:05:48;;;;;;;25.50;12.30;;;10.00;99.90;;;;;;5083723;28;20024;-81
2023/02/21 14:08:17;;;;;;;23.83;12.63;;;10.00;99.90;;;;;;5080447;28;20032;-81
2023/02/21 14:10:46;;;;;;;23.83;11.73;;;10.00;99.90;;;;;;5082002;28;20021;-82
2023/02/21 14:13:20;;;;;;;25.27;12.67;;;10.00;99.90;;;;;;5095290;28;20029;-82
2023/02/21 14:15:54;;;;;;;29.77;12.40;;;10.00;99.90;;;;;;5073075;28;20035;-84
2023/02/21 14:18:20;;;;;;;26.83;11.87;;;10.00;99.90;;;;;;5074296;28;20419;-83
2023/02/21 14:20:49;;;;;;;23.70;10.97;;;10.00;99.90;;;;;;5074854;28;20020;-83
2023/02/21 14:23:16;;;;;;;25.43;12.60;;;10.00;99.90;;;;;;5073242;28;20024;-82
2023/02/21 14:25:58;;;;;;;24.93;11.37;;;10.00;99.90;;;;;;5073669;28;20445;-83
2023/02/21 14:28:55;;;;;;;27.60;12.17;;;10.10;99.90;;;;;;5074391;28;20043;-83
2023/02/21 14:31:48;;;;;;;28.27;13.13;;;10.00;99.90;;;;;;5039621;28;20043;-82
2023/02/21 14:34:19;;;;;;;27.97;13.90;;;10.10;99.90;;;;;;5060441;28;20064;-83
2023/02/21 14:36:47;;;;;;;27.30;13.33;;;10.10;99.90;;;;;;5072833;28;20029;-83
2023/02/21 14:39:14;;;;;;;31.67;14.17;;;10.10;99.90;;;;;;5073094;28;20404;-82
2023/02/21 14:41:51;;;;;;;29.47;13.77;;;10.10;99.90;;;;;;5073369;28;20032;-82
2023/02/21 14:44:34;;;;;;;28.03;13.97;;;10.10;99.90;;;;;;5073348;28;20160;-82
2023/02/21 14:47:35;;;;;;;30.13;13.70;;;10.10;99.90;;;;;;5072487;28;20086;-83
2023/02/21 14:50:37;;;;;;;28.57;14.60;;;10.10;99.90;;;;;;5006447;28;20036;-82
2023/02/21 14:53:24;;;;;;;32.80;15.20;;;10.20;99.90;;;;;;5081666;28;20024;-82
2023/02/21 14:56:13;;;;;;;29.33;13.73;;;10.20;99.90;;;;;;5073775;28;20032;-82
2023/02/21 14:59:11;;;;;;;29.30;14.83;;;10.10;99.90;;;;;;5072424;28;20032;-82
2023/02/21 15:02:04;;;;;;;34.90;15.50;;;10.20;99.90;;;;;;5018090;28;20032;-83
2023/02/21 15:04:33;;;;;;;28.37;14.37;;;10.20;99.90;;;;;;5059991;28;20028;-82
2023/02/21 15:07:22;;;;;;;26.83;14.13;;;10.20;99.90;;;;;;5072265;28;20985;-82
2023/02/21 15:10:13;;;;;;;29.37;14.43;;;10.20;99.90;;;;;;5072570;28;20032;-82
2023/02/21 15:12:44;;;;;;;28.77;14.03;;;10.30;99.90;;;;;;5072225;28;20016;-82
2023/02/21 15:15:21;;;;;;;29.93;15.43;;;10.30;99.90;;;;;;5073830;28;20029;-82
2023/02/21 15:18:06;;;;;;;32.47;16.67;;;10.30;99.90;;;;;;5072193;28;20542;-83
2023/02/21 15:20:35;;;;;;;32.27;16.00;;;10.20;99.90;;;;;;5057841;28;20039;-82
2023/02/21 15:23:13;;;;;;;35.10;16.30;;;10.20;99.90;;;;;;5072361;28;20023;-82
2023/02/21 15:25:39;;;;;;;31.13;15.80;;;10.20;99.90;;;;;;5071730;28;20035;-82
2023/02/21 15:28:27;;;;;;;32.37;16.03;;;10.20;99.90;;;;;;5071324;28;20115;-82
2023/02/21 15:31:06;;;;;;;26.67;14.10;;;10.20;99.90;;;;;;5072567;28;20036;-82
2023/02/21 15:33:40;;;;;;;27.43;14.87;;;10.20;99.90;;;;;;5073610;28;20119;-82
2023/02/21 15:36:11;;;;;;;25.95;13.32;;;10.20;99.90;;;;;;5071737;28;20476;-82
2023/02/21 15:38:48;;;;;;;26.80;12.93;;;10.20;99.90;;;;;;5071369;28;20032;-82
2023/02/21 15:41:28;;;;;;;25.33;13.53;;;10.10;99.90;;;;;;5072009;28;20506;-82
2023/02/21 15:44:01;;;;;;;24.73;12.20;;;10.10;99.90;;;;;;5073481;28;20065;-82